sensor_id;sensor_type;location;lat;lon;timestamp;pressure;altitude;pressure_sealevel;temperature;humidity
50933;BME280;36921;49.006;9.292;2023-05-23T00:01:31;98580.03;;;16.30;100.00
50933;BME280;36921;49.006;9.292;2023-05-23T00:03:57;98592.97;;;16.35;100.00
50933;BME280;36921;49.006;9.292;2023-05-23T00:06:22;98562.28;;;16.16;100.00
50933;BME280;36921;49.006;9.292;2023-05-23T00:08:48;98588.13;;;16.25;100.00
50933;BME280;36921;49.006;9.292;2023-05-23T00:11:14;98575.84;;;16.11;100.00
50933;BME280;36921;49.006;9.292;2023-05-23T00:13:40;98578.97;;;16.03;100.00
50933;BME280;36921;49.006;9.292;2023-05-23T00:16:06;98564.00;;;16.05;100.00
50933;BME280;36921;49.006;9.292;2023-05-23T00:18:34;98577.16;;;16.08;100.00
50933;BME280;36921;49.006;9.292;2023-05-23T00:20:59;98585.63;;;16.07;100.00
50933;BME280;36921;49.006;9.292;2023-05-23T00:23:26;98593.91;;;16.12;100.00
50933;BME280;36921;49.006;9.292;2023-05-23T00:25:56;98595.72;;;16.06;100.00
50933;BME280;36921;49.006;9.292;2023-05-23T00:28:22;98573.31;;;15.92;100.00
50933;BME280;36921;49.006;9.292;2023-05-23T00:30:47;98582.81;;;15.90;100.00
50933;BME280;36921;49.006;9.292;2023-05-23T00:33:13;98590.28;;;15.94;100.00
50933;BME280;36921;49.006;9.292;2023-05-23T00:35:40;98577.16;;;15.80;100.00
50933;BME280;36921;49.006;9.292;2023-05-23T00:38:05;98604.75;;;15.95;100.00
50933;BME280;36921;49.006;9.292;2023-05-23T00:40:32;98602.50;;;15.92;100.00
50933;BME280;36921;49.006;9.292;2023-05-23T00:42:58;98602.50;;;15.92;100.00
50933;BME280;36921;49.006;9.292;2023-05-23T00:45:23;98590.56;;;15.81;100.00
50933;BME280;36921;49.006;9.292;2023-05-23T00:47:48;98609.63;;;15.93;100.00
50933;BME280;36921;49.006;9.292;2023-05-23T00:50:15;98611.81;;;15.79;100.00
50933;BME280;36921;49.006;9.292;2023-05-23T00:52:42;98629.84;;;15.80;100.00
50933;BME280;36921;49.006;9.292;2023-05-23T00:55:08;98635.53;;;15.78;100.00
50933;BME280;36921;49.006;9.292;2023-05-23T00:57:35;98633.50;;;15.74;100.00
50933;BME280;36921;49.006;9.292;2023-05-23T01:00:07;98632.56;;;15.68;100.00
50933;BME280;36921;49.006;9.292;2023-05-23T01:02:39;98629.84;;;15.80;100.00
50933;BME280;36921;49.006;9.292;2023-05-23T01:05:08;98622.72;;;15.79;100.00
50933;BME280;36921;49.006;9.292;2023-05-23T01:07:34;98642.88;;;15.78;100.00
50933;BME280;36921;49.006;9.292;2023-05-23T01:10:00;98642.88;;;15.78;100.00
50933;BME280;36921;49.006;9.292;2023-05-23T01:12:40;98642.06;;;15.77;100.00
50933;BME280;36921;49.006;9.292;2023-05-23T01:15:18;98637.91;;;15.75;100.00
50933;BME280;36921;49.006;9.292;2023-05-23T01:17:55;98648.34;;;15.78;100.00
50933;BME280;36921;49.006;9.292;2023-05-23T01:20:29;98641.69;;;15.74;100.00
50933;BME280;36921;49.006;9.292;2023-05-23T01:28:02;98627.63;;;15.42;100.00
50933;BME280;36921;49.006;9.292;2023-05-23T01:30:31;98639.13;;;15.44;100.00
50933;BME280;36921;49.006;9.292;2023-05-23T01:33:00;98632.38;;;15.34;100.00
50933;BME280;36921;49.006;9.292;2023-05-23T01:35:26;98646.25;;;15.33;100.00
50933;BME280;36921;49.006;9.292;2023-05-23T01:37:52;98655.72;;;15.42;100.00
50933;BME280;36921;49.006;9.292;2023-05-23T01:40:18;98639.50;;;15.36;100.00
50933;BME280;36921;49.006;9.292;2023-05-23T01:42:44;98634.88;;;15.36;100.00
50933;BME280;36921;49.006;9.292;2023-05-23T01:45:10;98638.53;;;15.30;100.00
50933;BME280;36921;49.006;9.292;2023-05-23T01:47:37;98633.31;;;15.17;100.00
50933;BME280;36921;49.006;9.292;2023-05-23T01:50:03;98644.69;;;15.13;100.00
50933;BME280;36921;49.006;9.292;2023-05-23T01:52:28;98644.22;;;15.05;100.00
50933;BME280;36921;49.006;9.292;2023-05-23T01:54:54;98631.88;;;14.90;100.00
50933;BME280;36921;49.006;9.292;2023-05-23T01:57:21;98623.59;;;14.85;100.00
50933;BME280;36921;49.006;9.292;2023-05-23T01:59:46;98624.44;;;14.86;100.00
50933;BME280;36921;49.006;9.292;2023-05-23T02:02:12;98625.63;;;14.78;100.00
50933;BME280;36921;49.006;9.292;2023-05-23T02:04:37;98647.28;;;14.85;100.00
50933;BME280;36921;49.006;9.292;2023-05-23T02:07:02;98652.97;;;14.83;100.00
50933;BME280;36921;49.006;9.292;2023-05-23T02:09:28;98645.03;;;14.82;100.00
50933;BME280;36921;49.006;9.292;2023-05-23T02:11:53;98642.09;;;14.83;100.00
50933;BME280;36921;49.006;9.292;2023-05-23T02:14:19;98651.31;;;14.82;100.00
50933;BME280;36921;49.006;9.292;2023-05-23T02:16:45;98662.94;;;14.89;100.00
50933;BME280;36921;49.006;9.292;2023-05-23T02:19:10;98657.00;;;14.81;100.00
50933;BME280;36921;49.006;9.292;2023-05-23T02:21:36;98655.56;;;14.78;100.00
50933;BME280;36921;49.006;9.292;2023-05-23T02:24:02;98642.75;;;14.67;100.00
50933;BME280;36921;49.006;9.292;2023-05-23T02:26:27;98640.75;;;14.62;100.00
50933;BME280;36921;49.006;9.292;2023-05-23T02:28:53;98643.47;;;14.62;100.00
50933;BME280;36921;49.006;9.292;2023-05-23T02:31:18;98657.31;;;14.61;100.00
50933;BME280;36921;49.006;9.292;2023-05-23T02:33:43;98638.06;;;14.44;100.00
50933;BME280;36921;49.006;9.292;2023-05-23T02:36:08;98658.69;;;14.52;100.00
50933;BME280;36921;49.006;9.292;2023-05-23T02:38:34;98668.09;;;14.67;100.00
50933;BME280;36921;49.006;9.292;2023-05-23T02:40:59;98684.25;;;14.81;100.00
50933;BME280;36921;49.006;9.292;2023-05-23T02:43:24;98654.28;;;14.81;100.00
50933;BME280;36921;49.006;9.292;2023-05-23T02:45:50;98670.41;;;14.94;100.00
50933;BME280;36921;49.006;9.292;2023-05-23T02:48:16;98666.84;;;15.05;100.00
50933;BME280;36921;49.006;9.292;2023-05-23T02:50:41;98660.94;;;15.08;100.00
50933;BME280;36921;49.006;9.292;2023-05-23T02:53:06;98659.16;;;15.14;100.00
50933;BME280;36921;49.006;9.292;2023-05-23T02:55:31;98675.53;;;15.26;100.00
50933;BME280;36921;49.006;9.292;2023-05-23T02:57:57;98655.59;;;15.13;100.00
50933;BME280;36921;49.006;9.292;2023-05-23T03:00:26;98647.31;;;15.20;100.00
50933;BME280;36921;49.006;9.292;2023-05-23T03:02:51;98647.69;;;15.12;100.00
50933;BME280;36921;49.006;9.292;2023-05-23T03:05:17;98670.28;;;15.24;100.00
50933;BME280;36921;49.006;9.292;2023-05-23T03:07:42;98665.56;;;15.31;100.00
50933;BME280;36921;49.006;9.292;2023-05-23T03:10:08;98673.97;;;15.42;100.00
50933;BME280;36921;49.006;9.292;2023-05-23T03:12:33;98661.66;;;15.39;100.00
50933;BME280;36921;49.006;9.292;2023-05-23T03:14:59;98666.13;;;15.45;100.00
50933;BME280;36921;49.006;9.292;2023-05-23T03:17:24;98666.03;;;15.40;100.00
50933;BME280;36921;49.006;9.292;2023-05-23T03:19:50;98655.00;;;15.35;100.00
50933;BME280;36921;49.006;9.292;2023-05-23T03:22:15;98641.25;;;15.30;100.00
50933;BME280;36921;49.006;9.292;2023-05-23T03:24:41;98669.72;;;15.46;100.00
50933;BME280;36921;49.006;9.292;2023-05-23T03:27:07;98662.00;;;15.43;100.00
50933;BME280;36921;49.006;9.292;2023-05-23T03:29:32;98640.91;;;15.26;100.00
50933;BME280;36921;49.006;9.292;2023-05-23T03:31:57;98651.22;;;15.36;100.00
50933;BME280;36921;49.006;9.292;2023-05-23T03:34:22;98659.84;;;15.45;100.00
50933;BME280;36921;49.006;9.292;2023-05-23T03:36:50;98660.81;;;15.39;100.00
50933;BME280;36921;49.006;9.292;2023-05-23T03:39:15;98661.41;;;15.41;100.00
50933;BME280;36921;49.006;9.292;2023-05-23T03:41:41;98659.50;;;15.41;100.00
50933;BME280;36921;49.006;9.292;2023-05-23T03:44:06;98662.25;;;15.41;100.00
50933;BME280;36921;49.006;9.292;2023-05-23T03:46:32;98667.44;;;15.43;100.00
50933;BME280;36921;49.006;9.292;2023-05-23T03:48:57;98674.31;;;15.57;100.00
50933;BME280;36921;49.006;9.292;2023-05-23T03:51:22;98677.28;;;15.67;100.00
50933;BME280;36921;49.006;9.292;2023-05-23T03:53:48;98683.22;;;15.76;100.00
50933;BME280;36921;49.006;9.292;2023-05-23T03:56:13;98663.03;;;15.77;100.00
50933;BME280;36921;49.006;9.292;2023-05-23T03:58:38;98683.16;;;15.99;100.00
50933;BME280;36921;49.006;9.292;2023-05-23T04:01:04;98669.63;;;16.05;100.00
50933;BME280;36921;49.006;9.292;2023-05-23T04:03:31;98687.13;;;16.20;100.00
50933;BME280;36921;49.006;9.292;2023-05-23T04:05:58;98669.09;;;16.19;100.00
50933;BME280;36921;49.006;9.292;2023-05-23T04:08:24;98693.72;;;16.36;100.00
50933;BME280;36921;49.006;9.292;2023-05-23T04:10:50;98670.13;;;16.30;100.00
50933;BME280;36921;49.006;9.292;2023-05-23T04:13:15;98670.13;;;16.30;100.00
50933;BME280;36921;49.006;9.292;2023-05-23T04:15:40;98691.66;;;16.43;100.00
50933;BME280;36921;49.006;9.292;2023-05-23T04:18:06;98689.03;;;16.49;100.00
50933;BME280;36921;49.006;9.292;2023-05-23T04:20:33;98683.47;;;16.43;100.00
50933;BME280;36921;49.006;9.292;2023-05-23T04:22:58;98676.44;;;16.48;100.00
50933;BME280;36921;49.006;9.292;2023-05-23T04:25:24;98673.06;;;16.57;100.00
50933;BME280;36921;49.006;9.292;2023-05-23T04:27:50;98684.69;;;16.64;100.00
50933;BME280;36921;49.006;9.292;2023-05-23T04:30:17;98680.22;;;16.58;100.00
50933;BME280;36921;49.006;9.292;2023-05-23T04:32:42;98676.72;;;16.63;100.00
50933;BME280;36921;49.006;9.292;2023-05-23T04:35:08;98678.41;;;16.64;100.00
50933;BME280;36921;49.006;9.292;2023-05-23T04:37:34;98692.63;;;16.66;100.00
50933;BME280;36921;49.006;9.292;2023-05-23T04:40:02;98669.84;;;16.60;100.00
50933;BME280;36921;49.006;9.292;2023-05-23T04:42:28;98690.84;;;16.72;100.00
50933;BME280;36921;49.006;9.292;2023-05-23T04:44:53;98693.06;;;16.75;100.00
50933;BME280;36921;49.006;9.292;2023-05-23T04:47:21;98681.56;;;16.73;100.00
50933;BME280;36921;49.006;9.292;2023-05-23T04:49:48;98697.34;;;16.82;100.00
50933;BME280;36921;49.006;9.292;2023-05-23T04:52:14;98699.16;;;16.94;100.00
50933;BME280;36921;49.006;9.292;2023-05-23T04:54:39;98684.84;;;17.03;100.00
50933;BME280;36921;49.006;9.292;2023-05-23T04:57:08;98699.09;;;17.22;100.00
50933;BME280;36921;49.006;9.292;2023-05-23T04:59:34;98682.16;;;17.25;100.00
50933;BME280;36921;49.006;9.292;2023-05-23T05:01:59;98696.16;;;17.46;100.00
50933;BME280;36921;49.006;9.292;2023-05-23T05:04:24;98702.22;;;17.48;100.00
50933;BME280;36921;49.006;9.292;2023-05-23T05:06:50;98694.72;;;17.60;100.00
50933;BME280;36921;49.006;9.292;2023-05-23T05:09:16;98704.00;;;17.59;100.00
50933;BME280;36921;49.006;9.292;2023-05-23T05:11:42;98696.81;;;17.53;100.00
50933;BME280;36921;49.006;9.292;2023-05-23T05:14:07;98686.41;;;17.33;100.00
50933;BME280;36921;49.006;9.292;2023-05-23T05:16:32;98692.25;;;17.42;100.00
50933;BME280;36921;49.006;9.292;2023-05-23T05:18:58;98684.22;;;17.52;100.00
50933;BME280;36921;49.006;9.292;2023-05-23T05:21:23;98694.47;;;17.62;100.00
50933;BME280;36921;49.006;9.292;2023-05-23T05:23:48;98684.44;;;17.84;100.00
50933;BME280;36921;49.006;9.292;2023-05-23T05:26:13;98688.56;;;18.09;100.00
50933;BME280;36921;49.006;9.292;2023-05-23T05:28:39;98691.72;;;18.23;100.00
50933;BME280;36921;49.006;9.292;2023-05-23T05:31:05;98699.06;;;18.17;100.00
50933;BME280;36921;49.006;9.292;2023-05-23T05:33:30;98682.59;;;18.39;100.00
50933;BME280;36921;49.006;9.292;2023-05-23T05:36:01;98676.69;;;18.25;100.00
50933;BME280;36921;49.006;9.292;2023-05-23T05:38:27;98695.97;;;18.85;100.00
50933;BME280;36921;49.006;9.292;2023-05-23T05:40:52;98681.31;;;19.01;100.00
50933;BME280;36921;49.006;9.292;2023-05-23T05:43:18;98682.31;;;19.22;100.00
50933;BME280;36921;49.006;9.292;2023-05-23T05:45:44;98668.66;;;19.32;100.00
50933;BME280;36921;49.006;9.292;2023-05-23T05:48:09;98684.31;;;19.32;100.00
50933;BME280;36921;49.006;9.292;2023-05-23T05:50:35;98673.63;;;19.35;100.00
50933;BME280;36921;49.006;9.292;2023-05-23T05:53:01;98668.72;;;19.37;100.00
50933;BME280;36921;49.006;9.292;2023-05-23T05:55:26;98663.97;;;19.70;100.00
50933;BME280;36921;49.006;9.292;2023-05-23T05:57:51;98673.44;;;19.89;100.00
50933;BME280;36921;49.006;9.292;2023-05-23T06:00:17;98665.13;;;20.47;100.00
50933;BME280;36921;49.006;9.292;2023-05-23T06:02:44;98676.19;;;21.09;100.00
50933;BME280;36921;49.006;9.292;2023-05-23T06:05:15;98656.13;;;21.03;100.00
50933;BME280;36921;49.006;9.292;2023-05-23T06:07:44;98667.69;;;21.10;100.00
50933;BME280;36921;49.006;9.292;2023-05-23T06:10:09;98672.06;;;21.11;100.00
50933;BME280;36921;49.006;9.292;2023-05-23T06:12:38;98662.47;;;20.88;100.00
50933;BME280;36921;49.006;9.292;2023-05-23T06:15:05;98683.88;;;20.76;100.00
50933;BME280;36921;49.006;9.292;2023-05-23T06:17:30;98672.59;;;20.57;100.00
50933;BME280;36921;49.006;9.292;2023-05-23T06:19:55;98684.00;;;20.18;100.00
50933;BME280;36921;49.006;9.292;2023-05-23T06:22:22;98688.69;;;19.70;100.00
50933;BME280;36921;49.006;9.292;2023-05-23T06:24:47;98696.19;;;19.42;100.00
50933;BME280;36921;49.006;9.292;2023-05-23T06:27:12;98688.66;;;19.27;100.00
50933;BME280;36921;49.006;9.292;2023-05-23T06:29:38;98686.84;;;19.06;100.00
50933;BME280;36921;49.006;9.292;2023-05-23T06:32:04;98691.44;;;19.33;100.00
50933;BME280;36921;49.006;9.292;2023-05-23T06:34:29;98709.94;;;19.47;100.00
50933;BME280;36921;49.006;9.292;2023-05-23T06:36:55;98701.94;;;19.46;100.00
50933;BME280;36921;49.006;9.292;2023-05-23T06:39:20;98716.19;;;19.80;100.00
50933;BME280;36921;49.006;9.292;2023-05-23T06:41:46;98703.63;;;19.89;100.00
50933;BME280;36921;49.006;9.292;2023-05-23T06:44:11;98707.88;;;20.18;100.00
50933;BME280;36921;49.006;9.292;2023-05-23T06:46:36;98714.03;;;20.45;100.00
50933;BME280;36921;49.006;9.292;2023-05-23T06:49:02;98710.44;;;20.45;100.00
50933;BME280;36921;49.006;9.292;2023-05-23T06:51:28;98698.25;;;20.15;100.00
50933;BME280;36921;49.006;9.292;2023-05-23T06:53:53;98727.66;;;20.20;100.00
50933;BME280;36921;49.006;9.292;2023-05-23T06:56:23;98717.78;;;20.19;100.00
50933;BME280;36921;49.006;9.292;2023-05-23T06:58:48;98721.69;;;20.38;100.00
50933;BME280;36921;49.006;9.292;2023-05-23T07:01:14;98720.13;;;20.57;100.00
50933;BME280;36921;49.006;9.292;2023-05-23T07:03:39;98723.94;;;20.51;100.00
50933;BME280;36921;49.006;9.292;2023-05-23T07:06:07;98715.31;;;20.27;100.00
50933;BME280;36921;49.006;9.292;2023-05-23T07:08:32;98738.19;;;20.43;100.00
50933;BME280;36921;49.006;9.292;2023-05-23T07:10:58;98730.81;;;20.49;100.00
50933;BME280;36921;49.006;9.292;2023-05-23T07:13:23;98720.69;;;20.54;100.00
50933;BME280;36921;49.006;9.292;2023-05-23T07:15:48;98731.44;;;20.66;100.00
50933;BME280;36921;49.006;9.292;2023-05-23T07:18:13;98738.00;;;20.55;100.00
50933;BME280;36921;49.006;9.292;2023-05-23T07:20:39;98728.66;;;20.56;100.00
50933;BME280;36921;49.006;9.292;2023-05-23T07:23:04;98736.72;;;20.93;100.00
50933;BME280;36921;49.006;9.292;2023-05-23T07:25:31;98723.22;;;20.87;100.00
50933;BME280;36921;49.006;9.292;2023-05-23T07:27:57;98717.19;;;20.95;100.00
50933;BME280;36921;49.006;9.292;2023-05-23T07:30:22;98745.56;;;21.41;100.00
50933;BME280;36921;49.006;9.292;2023-05-23T07:32:48;98727.13;;;21.57;100.00
50933;BME280;36921;49.006;9.292;2023-05-23T07:35:14;98702.28;;;21.93;100.00
50933;BME280;36921;49.006;9.292;2023-05-23T07:37:40;98740.38;;;22.51;100.00
50933;BME280;36921;49.006;9.292;2023-05-23T07:40:06;98695.69;;;22.99;100.00
50933;BME280;36921;49.006;9.292;2023-05-23T07:42:34;98731.75;;;24.29;100.00
50933;BME280;36921;49.006;9.292;2023-05-23T07:45:00;98734.56;;;24.24;100.00
50933;BME280;36921;49.006;9.292;2023-05-23T07:47:25;98713.69;;;23.89;100.00
50933;BME280;36921;49.006;9.292;2023-05-23T07:49:51;98727.09;;;23.76;100.00
50933;BME280;36921;49.006;9.292;2023-05-23T07:52:17;98725.50;;;23.65;100.00
50933;BME280;36921;49.006;9.292;2023-05-23T07:54:42;98743.59;;;23.13;100.00
50933;BME280;36921;49.006;9.292;2023-05-23T07:57:09;98750.72;;;22.74;100.00
50933;BME280;36921;49.006;9.292;2023-05-23T07:59:35;98744.47;;;22.59;100.00
50933;BME280;36921;49.006;9.292;2023-05-23T08:02:01;98743.38;;;22.54;100.00
50933;BME280;36921;49.006;9.292;2023-05-23T08:04:27;98756.22;;;22.09;100.00
50933;BME280;36921;49.006;9.292;2023-05-23T08:06:52;98765.84;;;22.27;100.00
50933;BME280;36921;49.006;9.292;2023-05-23T08:09:19;98744.59;;;22.18;100.00
50933;BME280;36921;49.006;9.292;2023-05-23T08:11:45;98737.63;;;22.51;100.00
50933;BME280;36921;49.006;9.292;2023-05-23T08:14:10;98759.97;;;22.99;100.00
50933;BME280;36921;49.006;9.292;2023-05-23T08:16:35;98742.00;;;22.57;100.00
50933;BME280;36921;49.006;9.292;2023-05-23T08:19:01;98760.31;;;22.17;100.00
50933;BME280;36921;49.006;9.292;2023-05-23T08:21:26;98764.03;;;21.51;100.00
50933;BME280;36921;49.006;9.292;2023-05-23T08:23:52;98748.81;;;20.97;100.00
50933;BME280;36921;49.006;9.292;2023-05-23T08:26:17;98759.53;;;20.89;100.00
50933;BME280;36921;49.006;9.292;2023-05-23T08:28:42;98774.09;;;20.84;100.00
50933;BME280;36921;49.006;9.292;2023-05-23T08:31:08;98775.69;;;20.75;100.00
50933;BME280;36921;49.006;9.292;2023-05-23T08:33:33;98767.22;;;20.82;100.00
50933;BME280;36921;49.006;9.292;2023-05-23T08:35:58;98753.41;;;20.61;100.00
50933;BME280;36921;49.006;9.292;2023-05-23T08:38:24;98777.13;;;20.98;100.00
50933;BME280;36921;49.006;9.292;2023-05-23T08:40:51;98780.47;;;21.10;100.00
50933;BME280;36921;49.006;9.292;2023-05-23T08:43:17;98768.88;;;20.93;100.00
50933;BME280;36921;49.006;9.292;2023-05-23T08:45:44;98788.97;;;20.98;100.00
50933;BME280;36921;49.006;9.292;2023-05-23T08:48:12;98785.41;;;21.03;100.00
50933;BME280;36921;49.006;9.292;2023-05-23T08:50:39;98786.22;;;20.93;100.00
50933;BME280;36921;49.006;9.292;2023-05-23T08:53:05;98799.16;;;21.08;100.00
50933;BME280;36921;49.006;9.292;2023-05-23T08:55:34;98796.50;;;21.39;100.00
50933;BME280;36921;49.006;9.292;2023-05-23T08:58:01;98793.66;;;22.16;100.00
50933;BME280;36921;49.006;9.292;2023-05-23T09:00:28;98799.50;;;24.26;100.00
50933;BME280;36921;49.006;9.292;2023-05-23T09:02:54;98788.00;;;27.05;95.33
50933;BME280;36921;49.006;9.292;2023-05-23T09:05:20;98792.81;;;27.95;78.14
50933;BME280;36921;49.006;9.292;2023-05-23T09:07:46;98789.31;;;27.81;75.99
50933;BME280;36921;49.006;9.292;2023-05-23T09:10:13;98780.31;;;26.19;82.61
50933;BME280;36921;49.006;9.292;2023-05-23T09:12:39;98809.84;;;25.31;95.15
50933;BME280;36921;49.006;9.292;2023-05-23T09:15:05;98745.47;;;23.86;100.00
50933;BME280;36921;49.006;9.292;2023-05-23T09:17:35;98805.34;;;23.61;100.00
50933;BME280;36921;49.006;9.292;2023-05-23T09:20:01;98804.16;;;22.89;100.00
50933;BME280;36921;49.006;9.292;2023-05-23T09:22:27;98824.84;;;22.86;100.00
50933;BME280;36921;49.006;9.292;2023-05-23T09:24:57;98811.28;;;22.35;100.00
50933;BME280;36921;49.006;9.292;2023-05-23T09:27:22;98831.09;;;22.42;100.00
50933;BME280;36921;49.006;9.292;2023-05-23T09:29:48;98823.47;;;22.03;100.00
50933;BME280;36921;49.006;9.292;2023-05-23T09:32:17;98821.81;;;21.87;100.00
50933;BME280;36921;49.006;9.292;2023-05-23T09:34:56;98825.91;;;22.05;100.00
50933;BME280;36921;49.006;9.292;2023-05-23T09:37:35;98823.47;;;21.83;100.00
50933;BME280;36921;49.006;9.292;2023-05-23T09:40:06;98835.88;;;21.80;100.00
50933;BME280;36921;49.006;9.292;2023-05-23T09:42:34;98834.50;;;21.73;100.00
50933;BME280;36921;49.006;9.292;2023-05-23T09:45:00;98838.06;;;21.78;100.00
50933;BME280;36921;49.006;9.292;2023-05-23T09:47:25;98823.47;;;21.83;100.00
50933;BME280;36921;49.006;9.292;2023-05-23T09:49:54;98840.53;;;22.21;100.00
50933;BME280;36921;49.006;9.292;2023-05-23T09:52:19;98830.84;;;22.18;100.00
50933;BME280;36921;49.006;9.292;2023-05-23T09:54:45;98834.41;;;22.39;100.00
50933;BME280;36921;49.006;9.292;2023-05-23T09:57:13;98834.84;;;22.77;100.00
50933;BME280;36921;49.006;9.292;2023-05-23T09:59:40;98826.53;;;22.87;100.00
50933;BME280;36921;49.006;9.292;2023-05-23T10:02:10;98821.25;;;23.40;100.00
50933;BME280;36921;49.006;9.292;2023-05-23T10:04:38;98818.69;;;23.49;100.00
50933;BME280;36921;49.006;9.292;2023-05-23T10:07:11;98839.22;;;23.77;100.00
50933;BME280;36921;49.006;9.292;2023-05-23T10:09:41;98830.34;;;23.80;100.00
50933;BME280;36921;49.006;9.292;2023-05-23T10:15:06;98844.09;;;23.91;100.00
50933;BME280;36921;49.006;9.292;2023-05-23T10:20:15;98848.47;;;23.92;100.00
50933;BME280;36921;49.006;9.292;2023-05-23T10:22:41;98845.88;;;23.71;100.00
50933;BME280;36921;49.006;9.292;2023-05-23T10:25:07;98852.94;;;23.53;100.00
50933;BME280;36921;49.006;9.292;2023-05-23T10:27:35;98851.34;;;23.37;100.00
50933;BME280;36921;49.006;9.292;2023-05-23T10:30:01;98849.00;;;23.20;100.00
50933;BME280;36921;49.006;9.292;2023-05-23T10:32:28;98841.53;;;23.21;100.00
50933;BME280;36921;49.006;9.292;2023-05-23T10:37:52;98852.56;;;23.99;98.05
50933;BME280;36921;49.006;9.292;2023-05-23T10:43:09;98847.84;;;25.01;84.95
50933;BME280;36921;49.006;9.292;2023-05-23T10:45:41;98853.88;;;24.65;82.16
50933;BME280;36921;49.006;9.292;2023-05-23T10:48:31;98860.94;;;24.23;83.56
50933;BME280;36921;49.006;9.292;2023-05-23T10:51:02;98853.91;;;24.02;91.29
50933;BME280;36921;49.006;9.292;2023-05-23T10:53:30;98856.81;;;23.87;95.06
50933;BME280;36921;49.006;9.292;2023-05-23T10:55:55;98843.00;;;23.47;98.36
50933;BME280;36921;49.006;9.292;2023-05-23T10:58:21;98849.81;;;23.60;99.36
50933;BME280;36921;49.006;9.292;2023-05-23T11:00:54;98844.16;;;23.41;95.63
50933;BME280;36921;49.006;9.292;2023-05-23T11:03:48;98847.13;;;23.50;95.89
50933;BME280;36921;49.006;9.292;2023-05-23T11:06:29;98851.47;;;23.22;100.00
50933;BME280;36921;49.006;9.292;2023-05-23T11:09:01;98847.56;;;23.67;100.00
50933;BME280;36921;49.006;9.292;2023-05-23T11:19:38;98845.75;;;24.93;83.98
50933;BME280;36921;49.006;9.292;2023-05-23T11:22:07;98848.81;;;25.34;77.18
50933;BME280;36921;49.006;9.292;2023-05-23T11:24:54;98839.84;;;25.43;75.58
50933;BME280;36921;49.006;9.292;2023-05-23T11:27:47;98833.38;;;25.99;72.15
50933;BME280;36921;49.006;9.292;2023-05-23T11:30:14;98850.44;;;27.08;69.07
50933;BME280;36921;49.006;9.292;2023-05-23T11:32:41;98840.91;;;27.95;65.93
50933;BME280;36921;49.006;9.292;2023-05-23T11:35:08;98840.91;;;28.49;63.63
50933;BME280;36921;49.006;9.292;2023-05-23T11:37:36;98835.78;;;30.48;57.60
50933;BME280;36921;49.006;9.292;2023-05-23T11:40:39;98837.25;;;30.45;53.51
50933;BME280;36921;49.006;9.292;2023-05-23T11:43:09;98837.72;;;31.45;51.23
50933;BME280;36921;49.006;9.292;2023-05-23T11:45:36;98831.31;;;31.99;48.52
50933;BME280;36921;49.006;9.292;2023-05-23T11:48:09;98828.19;;;32.58;47.96
50933;BME280;36921;49.006;9.292;2023-05-23T11:50:53;98844.47;;;31.65;48.17
50933;BME280;36921;49.006;9.292;2023-05-23T11:53:21;98836.06;;;28.32;55.05
50933;BME280;36921;49.006;9.292;2023-05-23T11:55:56;98829.28;;;30.26;53.92
50933;BME280;36921;49.006;9.292;2023-05-23T11:58:32;98815.69;;;32.56;48.85
50933;BME280;36921;49.006;9.292;2023-05-23T12:01:06;98821.00;;;32.24;45.54
50933;BME280;36921;49.006;9.292;2023-05-23T12:03:33;98807.69;;;29.54;48.43
50933;BME280;36921;49.006;9.292;2023-05-23T12:05:58;98809.47;;;27.50;53.85
50933;BME280;36921;49.006;9.292;2023-05-23T12:08:25;98826.56;;;27.21;58.75
50933;BME280;36921;49.006;9.292;2023-05-23T12:10:52;98825.97;;;26.82;60.86
50933;BME280;36921;49.006;9.292;2023-05-23T12:13:18;98818.06;;;26.34;62.53
50933;BME280;36921;49.006;9.292;2023-05-23T12:15:43;98821.09;;;25.53;66.56
50933;BME280;36921;49.006;9.292;2023-05-23T12:18:10;98825.09;;;25.28;70.09
50933;BME280;36921;49.006;9.292;2023-05-23T12:20:36;98834.50;;;26.44;67.82
50933;BME280;36921;49.006;9.292;2023-05-23T12:23:04;98812.41;;;28.52;60.57
50933;BME280;36921;49.006;9.292;2023-05-23T12:25:37;98811.44;;;29.58;55.93
50933;BME280;36921;49.006;9.292;2023-05-23T12:28:03;98812.94;;;29.12;55.79
50933;BME280;36921;49.006;9.292;2023-05-23T12:30:40;98820.47;;;28.54;56.87
50933;BME280;36921;49.006;9.292;2023-05-23T12:33:07;98828.00;;;27.54;59.35
50933;BME280;36921;49.006;9.292;2023-05-23T12:35:32;98823.78;;;27.07;59.67
50933;BME280;36921;49.006;9.292;2023-05-23T12:37:58;98826.28;;;26.26;63.61
50933;BME280;36921;49.006;9.292;2023-05-23T12:40:23;98814.63;;;25.77;63.97
50933;BME280;36921;49.006;9.292;2023-05-23T12:42:53;98822.41;;;25.94;64.75
50933;BME280;36921;49.006;9.292;2023-05-23T12:45:21;98823.84;;;25.72;65.86
50933;BME280;36921;49.006;9.292;2023-05-23T12:47:46;98816.31;;;25.40;67.47
50933;BME280;36921;49.006;9.292;2023-05-23T12:50:12;98811.09;;;25.20;68.65
50933;BME280;36921;49.006;9.292;2023-05-23T12:52:38;98823.44;;;24.36;76.81
50933;BME280;36921;49.006;9.292;2023-05-23T12:55:04;98812.38;;;24.12;82.27
50933;BME280;36921;49.006;9.292;2023-05-23T12:57:32;98804.28;;;23.92;81.05
50933;BME280;36921;49.006;9.292;2023-05-23T12:59:58;98809.88;;;23.81;87.08
50933;BME280;36921;49.006;9.292;2023-05-23T13:02:23;98822.09;;;23.75;82.64
50933;BME280;36921;49.006;9.292;2023-05-23T13:04:48;98816.03;;;23.73;82.93
50933;BME280;36921;49.006;9.292;2023-05-23T13:07:14;98791.38;;;24.11;80.18
50933;BME280;36921;49.006;9.292;2023-05-23T13:09:39;98813.72;;;24.39;76.12
50933;BME280;36921;49.006;9.292;2023-05-23T13:12:05;98805.97;;;24.89;75.05
50933;BME280;36921;49.006;9.292;2023-05-23T13:14:30;98804.03;;;25.46;73.45
50933;BME280;36921;49.006;9.292;2023-05-23T13:16:56;98810.00;;;26.19;71.86